Time;durP1;ratioP1;P1;durP2;ratioP2;P2;SDS_P1;SDS_P2;PMS_P1;PMS_P2;Temp;Humidity;BMP_temperature;BMP_pressure;BME280_temperature;BME280_humidity;BME280_pressure;Samples;Min_cycle;Max_cycle;Signal;HPM_P1;HPM_P2
2023/02/18 00:03:50;;;;;;;2.45;1.10;;;;;;;10.39;65.90;100609.88;10359021;28;20041;-58
2023/02/18 00:08:53;;;;;;;1.08;0.98;;;;;;;10.43;65.57;100615.81;10366296;28;20049;-58
2023/02/18 00:13:58;;;;;;;1.88;1.17;;;;;;;10.46;65.54;100618.28;10362128;28;20824;-58
2023/02/18 00:19:03;;;;;;;2.20;1.02;;;;;;;10.41;65.55;100628.97;10367853;28;20062;-58
2023/02/18 00:24:07;;;;;;;1.10;1.00;;;;;;;10.41;65.44;100628.97;10371043;28;20049;-58
2023/02/18 00:29:09;;;;;;;1.48;1.00;;;;;;;10.42;65.52;100627.16;10354421;28;20054;-58
2023/02/18 00:34:12;;;;;;;1.55;1.10;;;;;;;10.32;65.52;100631.16;10366854;28;20045;-56
2023/02/18 00:39:13;;;;;;;1.98;1.00;;;;;;;10.28;65.75;100643.53;10362269;28;20045;-58
2023/02/18 00:44:15;;;;;;;1.85;1.10;;;;;;;10.32;65.73;100636.38;10360691;28;20046;-56
2023/02/18 00:49:17;;;;;;;1.98;0.90;;;;;;;10.28;65.99;100635.69;10368134;28;20045;-57
2023/02/18 00:54:18;;;;;;;1.50;1.05;;;;;;;10.29;66.33;100628.69;10368888;28;20060;-58
2023/02/18 00:59:20;;;;;;;2.03;1.00;;;;;;;10.50;65.72;100630.28;10367717;28;20397;-57
2023/02/18 01:04:22;;;;;;;1.77;1.02;;;;;;;10.52;65.50;100622.38;10362434;28;20046;-58
2023/02/18 01:09:24;;;;;;;1.58;0.88;;;;;;;10.39;65.90;100614.25;10384326;28;20460;-58
2023/02/18 01:14:26;;;;;;;3.75;1.00;;;;;;;10.49;65.62;100610.28;10361978;28;20055;-58
2023/02/18 01:19:27;;;;;;;2.05;1.10;;;;;;;10.46;65.67;100626.97;10368069;28;20545;-57
2023/02/18 01:24:29;;;;;;;0.85;0.77;;;;;;;10.48;65.73;100606.81;10364989;28;20063;-58
2023/02/18 01:29:31;;;;;;;1.85;1.00;;;;;;;10.38;65.90;100607.31;10365795;28;20050;-58
2023/02/18 01:34:33;;;;;;;2.05;0.90;;;;;;;10.43;65.75;100587.03;10361112;28;20045;-58
2023/02/18 01:39:35;;;;;;;1.42;0.80;;;;;;;10.42;65.73;100583.56;10376446;28;21059;-58
2023/02/18 01:44:37;;;;;;;1.45;0.98;;;;;;;10.47;65.45;100584.22;10368584;28;20052;-58
2023/02/18 01:49:39;;;;;;;1.27;0.93;;;;;;;10.50;65.15;100573.59;10377814;28;20065;-58
2023/02/18 01:54:45;;;;;;;1.10;1.00;;;;;;;10.52;65.39;100573.53;10373298;28;20045;-58
2023/02/18 02:00:13;;;;;;;1.15;0.93;;;;;;;10.41;65.54;100573.19;10372293;28;20136;-58
2023/02/18 02:05:16;;;;;;;2.35;1.50;;;;;;;10.50;65.96;100575.38;10371042;28;20056;-58
2023/02/18 02:10:19;;;;;;;2.80;1.63;;;;;;;10.46;66.24;100572.03;10375156;28;20331;-58
2023/02/18 02:15:33;;;;;;;2.70;1.50;;;;;;;10.26;67.48;100563.47;10376514;28;20046;-57
2023/02/18 02:21:01;;;;;;;4.28;1.90;;;;;;;10.29;67.80;100552.88;10375444;28;20056;-58
2023/02/18 02:26:21;;;;;;;3.03;2.03;;;;;;;10.22;68.00;100541.88;10375367;28;20062;-58
2023/02/18 02:31:41;;;;;;;4.67;1.73;;;;;;;10.17;68.55;100541.25;10367775;28;20077;-58
2023/02/18 02:37:06;;;;;;;3.08;1.70;;;;;;;10.20;68.42;100554.16;10390585;28;20080;-59
2023/02/18 02:42:19;;;;;;;4.22;1.80;;;;;;;10.31;68.41;100544.06;10370234;28;20060;-58
2023/02/18 02:47:49;;;;;;;2.40;1.60;;;;;;;10.36;67.81;100538.56;10365086;28;20254;-57
2023/02/18 02:52:55;;;;;;;1.58;1.30;;;;;;;10.35;67.87;100532.53;10358823;28;20089;-58
2023/02/18 02:57:57;;;;;;;3.53;1.30;;;;;;;10.38;67.48;100524.50;10358698;28;20049;-58
2023/02/18 03:03:28;;;;;;;4.30;1.20;;;;;;;10.25;67.77;100527.81;10361620;28;20054;-59
2023/02/18 03:09:07;;;;;;;1.98;1.10;;;;;;;10.13;67.57;100517.97;10373324;28;20053;-58
2023/02/18 03:14:24;;;;;;;3.72;1.13;;;;;;;10.15;67.52;100509.13;10366894;28;20057;-57
2023/02/18 03:19:33;;;;;;;0.95;0.85;;;;;;;10.03;67.79;100509.72;10362764;28;20588;-58
2023/02/18 03:24:47;;;;;;;1.00;0.90;;;;;;;10.07;67.41;100511.28;10367701;28;20309;-58
2023/02/18 03:29:56;;;;;;;1.80;1.00;;;;;;;10.10;67.31;100513.72;10364950;28;20050;-57
2023/02/18 03:35:12;;;;;;;0.70;0.70;;;;;;;10.06;67.32;100509.56;10373414;28;20571;-58
2023/02/18 03:40:16;;;;;;;1.23;0.80;;;;;;;10.15;67.12;100497.81;10365632;28;20061;-57
2023/02/18 03:45:18;;;;;;;2.63;0.77;;;;;;;9.96;67.78;100489.16;10373285;28;20057;-57
2023/02/18 03:50:19;;;;;;;1.02;0.90;;;;;;;9.98;67.86;100485.56;10368961;28;20049;-57
2023/02/18 03:55:21;;;;;;;1.67;0.98;;;;;;;10.08;67.56;100478.13;10367321;28;20069;-58
2023/02/18 04:00:23;;;;;;;1.15;0.98;;;;;;;10.21;67.44;100476.59;10369581;28;20038;-57
2023/02/18 04:05:24;;;;;;;2.03;1.08;;;;;;;10.14;67.34;100469.97;10364495;28;20393;-57
2023/02/18 04:10:26;;;;;;;2.90;1.10;;;;;;;10.16;67.53;100462.91;10366939;28;20050;-57
2023/02/18 04:15:29;;;;;;;1.15;1.00;;;;;;;10.12;67.49;100466.59;10359144;28;20056;-57
2023/02/18 04:20:33;;;;;;;1.92;1.10;;;;;;;10.11;67.48;100464.91;10373776;28;20100;-57
2023/02/18 04:25:34;;;;;;;1.42;1.00;;;;;;;10.10;67.34;100461.44;10376858;28;20081;-58
2023/02/18 04:30:36;;;;;;;1.77;0.90;;;;;;;10.16;67.29;100457.66;10368035;28;20046;-57
2023/02/18 04:35:41;;;;;;;1.20;1.10;;;;;;;10.12;67.28;100443.06;10371227;28;20089;-57
2023/02/18 04:40:43;;;;;;;1.38;1.10;;;;;;;10.16;67.12;100435.00;10366651;28;20496;-57
2023/02/18 04:45:45;;;;;;;1.55;1.10;;;;;;;10.14;67.04;100441.22;10366205;28;20049;-57
2023/02/18 04:50:46;;;;;;;4.05;1.20;;;;;;;10.15;66.95;100427.25;10365500;28;20068;-58
2023/02/18 04:55:50;;;;;;;1.27;1.00;;;;;;;10.11;66.89;100444.00;10378912;28;20739;-57
2023/02/18 05:00:52;;;;;;;1.33;0.80;;;;;;;10.10;66.78;100437.06;10363202;28;20098;-58
2023/02/18 05:05:54;;;;;;;1.73;1.00;;;;;;;10.19;66.50;100428.78;10369358;28;20045;-57
2023/02/18 05:10:57;;;;;;;1.40;0.90;;;;;;;10.29;66.36;100420.41;10366803;28;20066;-57
2023/02/18 05:15:58;;;;;;;1.23;1.10;;;;;;;10.16;66.67;100415.84;10367386;28;20053;-58
2023/02/18 05:21:00;;;;;;;2.08;1.30;;;;;;;10.21;66.52;100413.88;10369898;28;20449;-56
2023/02/18 05:26:02;;;;;;;1.65;1.10;;;;;;;10.18;66.46;100420.09;10365474;28;20246;-57
2023/02/18 05:31:04;;;;;;;0.80;0.80;;;;;;;10.15;66.50;100394.13;10365364;28;20064;-57
2023/02/18 05:36:06;;;;;;;0.70;0.70;;;;;;;10.26;66.18;100407.47;10368287;28;20053;-57
2023/02/18 05:41:08;;;;;;;1.60;0.82;;;;;;;10.12;66.57;100391.66;10362858;28;20112;-58
2023/02/18 05:46:10;;;;;;;1.38;0.95;;;;;;;10.11;66.59;100382.13;10369556;28;20065;-57
2023/02/18 05:51:12;;;;;;;0.70;0.70;;;;;;;10.12;66.44;100380.34;10364929;28;20181;-57
2023/02/18 05:56:13;;;;;;;1.10;1.00;;;;;;;10.05;66.66;100386.81;10364434;28;20041;-57
2023/02/18 06:01:15;;;;;;;1.38;1.20;;;;;;;10.03;66.64;100375.59;10362384;28;20327;-57
2023/02/18 06:06:17;;;;;;;1.20;1.10;;;;;;;10.03;66.83;100372.97;10368315;28;20393;-58
2023/02/18 06:11:18;;;;;;;2.42;1.30;;;;;;;10.07;66.68;100358.84;10368580;28;20053;-58
2023/02/18 06:16:20;;;;;;;2.33;1.30;;;;;;;10.06;66.34;100363.22;10362676;28;20761;-58
2023/02/18 06:21:23;;;;;;;2.03;1.30;;;;;;;10.07;66.36;100370.16;10366544;28;20533;-57
2023/02/18 06:26:25;;;;;;;1.70;1.20;;;;;;;9.91;66.49;100357.94;10372360;28;20045;-58
2023/02/18 06:31:28;;;;;;;2.90;1.20;;;;;;;9.92;66.25;100350.00;10364288;28;20081;-58
2023/02/18 06:36:29;;;;;;;1.95;1.30;;;;;;;9.89;66.20;100362.38;10366334;28;20402;-58
2023/02/18 06:41:31;;;;;;;1.70;1.10;;;;;;;9.89;65.87;100357.16;10361012;28;20046;-56
2023/02/18 06:46:33;;;;;;;0.80;0.80;;;;;;;9.68;66.01;100345.16;10367369;28;20049;-58
2023/02/18 06:51:35;;;;;;;1.08;0.98;;;;;;;9.73;65.48;100354.44;10364254;28;20046;-57
2023/02/18 06:56:37;;;;;;;0.88;0.80;;;;;;;9.72;65.31;100344.09;10370502;28;20052;-58
2023/02/18 07:01:39;;;;;;;0.40;0.40;;;;;;;9.68;65.38;100325.13;10363912;28;20269;-58
2023/02/18 07:06:40;;;;;;;0.45;0.45;;;;;;;9.74;64.74;100327.41;10368839;28;20072;-57
2023/02/18 07:11:43;;;;;;;0.75;0.50;;;;;;;9.79;64.11;100330.63;10365552;28;20132;-57
2023/02/18 07:16:44;;;;;;;0.30;0.30;;;;;;;9.71;63.79;100329.34;10365811;28;20048;-57
2023/02/18 07:21:46;;;;;;;0.40;0.40;;;;;;;9.71;63.62;100321.50;10367482;28;20049;-58
2023/02/18 07:26:48;;;;;;;1.40;0.70;;;;;;;9.92;62.95;100320.41;10369133;28;20402;-58
2023/02/18 07:31:50;;;;;;;0.63;0.50;;;;;;;10.05;62.60;100345.88;10384037;28;20260;-58
2023/02/18 07:36:51;;;;;;;0.70;0.70;;;;;;;10.10;63.23;100340.38;10386382;28;20057;-58
2023/02/18 07:41:53;;;;;;;0.95;0.77;;;;;;;10.13;62.85;100328.03;10384783;28;20432;-58
2023/02/18 07:46:55;;;;;;;0.95;0.85;;;;;;;10.12;62.60;100325.47;10377872;28;20450;-58
2023/02/18 07:51:57;;;;;;;3.72;1.42;;;;;;;10.18;62.16;100326.00;10377715;28;20556;-58
2023/02/18 07:56:59;;;;;;;1.70;1.00;;;;;;;10.15;62.27;100330.53;10374008;28;20057;-59
2023/02/18 08:02:01;;;;;;;1.45;0.95;;;;;;;10.06;62.24;100341.47;10386452;28;21005;-59
2023/02/18 08:07:02;;;;;;;0.95;0.90;;;;;;;10.14;62.27;100340.16;10384814;28;20501;-58
2023/02/18 08:12:04;;;;;;;1.42;0.82;;;;;;;10.44;61.80;100356.84;10372952;28;20273;-59
2023/02/18 08:17:06;;;;;;;1.70;1.00;;;;;;;10.45;61.61;100366.41;10384893;28;20045;-59
2023/02/18 08:22:09;;;;;;;2.08;1.17;;;;;;;10.67;60.70;100367.88;10386374;28;20768;-59
2023/02/18 08:27:12;;;;;;;3.22;1.50;;;;;;;10.68;60.71;100362.56;10377643;28;20055;-58
2023/02/18 08:32:13;;;;;;;3.30;1.85;;;;;;;10.89;60.15;100369.25;10382964;28;20300;-59
2023/02/18 08:37:15;;;;;;;6.25;3.75;;;;;;;10.74;60.05;100364.88;10385432;28;20200;-58
2023/02/18 08:42:17;;;;;;;2.70;1.60;;;;;;;10.68;60.14;100366.94;10386454;28;20056;-57
2023/02/18 08:47:18;;;;;;;1.70;1.20;;;;;;;10.56;59.85;100363.22;10380433;28;20050;-59
2023/02/18 08:52:40;;;;;;;1.15;1.05;;;;;;;10.50;59.74;100387.09;10386411;28;20245;-59
2023/02/18 08:57:42;;;;;;;1.02;0.93;;;;;;;10.60;59.32;100374.38;10381503;28;20429;-58
2023/02/18 09:02:43;;;;;;;2.20;0.93;;;;;;;10.63;59.16;100382.88;10382557;28;20743;-57
2023/02/18 09:07:45;;;;;;;0.73;0.70;;;;;;;10.80;58.58;100379.38;10372579;28;20052;-56
2023/02/18 09:12:47;;;;;;;0.80;0.80;;;;;;;10.68;58.47;100388.72;10378412;28;20049;-58
2023/02/18 09:17:48;;;;;;;1.42;0.82;;;;;;;10.67;58.43;100405.34;10381966;28;20051;-58
2023/02/18 09:22:50;;;;;;;0.85;0.63;;;;;;;10.74;58.01;100403.25;10374347;28;20045;-59
2023/02/18 09:27:52;;;;;;;1.40;0.88;;;;;;;10.75;58.02;100420.63;10382077;28;20042;-58
2023/02/18 09:32:53;;;;;;;0.82;0.70;;;;;;;10.72;57.96;100419.03;10385145;28;20072;-58
2023/02/18 09:37:55;;;;;;;1.60;0.90;;;;;;;10.65;58.12;100409.81;10381074;28;20045;-58
2023/02/18 09:42:58;;;;;;;2.35;0.90;;;;;;;10.73;57.62;100420.72;10387922;28;20136;-58
2023/02/18 09:48:03;;;;;;;1.08;0.80;;;;;;;10.74;57.82;100424.19;10379574;28;20061;-59
2023/02/18 09:53:04;;;;;;;1.63;1.00;;;;;;;10.78;57.37;100404.78;10387180;28;20061;-57
2023/02/18 09:58:14;;;;;;;4.72;0.98;;;;;;;10.78;57.22;100387.31;10382565;28;20501;-58
2023/02/18 10:03:23;;;;;;;1.63;0.90;;;;;;;10.80;57.41;100395.06;10380122;28;20053;-56
2023/02/18 10:08:27;;;;;;;1.15;0.90;;;;;;;10.84;57.48;100396.59;10379662;28;20052;-55
2023/02/18 10:13:33;;;;;;;1.63;0.85;;;;;;;10.77;57.39;100403.94;10385239;28;20413;-57
2023/02/18 10:18:41;;;;;;;1.33;0.90;;;;;;;10.80;57.76;100382.84;10380041;28;20052;-58
2023/02/18 10:23:59;;;;;;;1.30;0.80;;;;;;;10.88;56.85;100396.38;10381690;28;20049;-59
2023/02/18 10:29:01;;;;;;;1.67;1.00;;;;;;;11.02;57.23;100393.84;10382147;28;20417;-59
2023/02/18 10:34:16;;;;;;;2.30;1.00;;;;;;;10.96;57.17;100369.78;10384426;28;20064;-58
2023/02/18 10:39:47;;;;;;;2.53;1.05;;;;;;;11.04;56.89;100373.69;10379389;28;20436;-59
2023/02/18 10:45:14;;;;;;;1.48;0.90;;;;;;;10.99;55.94;100386.16;10380133;28;20056;-59
2023/02/18 10:50:36;;;;;;;3.78;1.02;;;;;;;10.99;55.94;100382.72;10369486;28;20045;-58
2023/02/18 10:55:43;;;;;;;2.08;1.10;;;;;;;11.00;56.83;100373.91;10384297;28;20056;-59
2023/02/18 11:00:45;;;;;;;4.05;1.20;;;;;;;10.88;57.00;100369.34;10408701;22;20981;-79
2023/02/18 11:05:53;;;;;;;2.83;1.10;;;;;;;11.05;56.44;100367.53;10412959;28;20068;-79
2023/02/18 11:10:59;;;;;;;2.65;1.20;;;;;;;10.90;56.80;100365.72;10414179;28;20054;-80
2023/02/18 11:16:08;;;;;;;5.07;1.38;;;;;;;10.70;56.40;100341.56;10413500;28;20060;-81
2023/02/18 11:21:20;;;;;;;3.17;1.38;;;;;;;10.68;56.38;100339.03;10411853;28;20139;-79
2023/02/18 11:26:31;;;;;;;4.18;1.33;;;;;;;10.56;56.93;100324.00;10407920;28;20144;-80
2023/02/18 11:31:43;;;;;;;;;;;;;;;10.32;57.12;100328.72;10408160;28;20148;-80
2023/02/18 11:36:51;;;;;;;4.05;1.48;;;;;;;11.02;56.26;100299.63;10403980;28;21211;-81
2023/02/18 11:42:03;;;;;;;3.70;1.70;;;;;;;11.16;55.62;100297.09;10396116;28;20076;-81
2023/02/18 11:47:20;;;;;;;4.75;1.65;;;;;;;11.09;55.72;100295.75;10404650;28;20176;-81
2023/02/18 11:52:31;;;;;;;3.38;1.50;;;;;;;11.45;55.55;100297.22;10411996;28;20474;-80
2023/02/18 11:58:05;;;;;;;3.53;1.50;;;;;;;11.60;54.37;100298.97;10401792;28;20642;-82
2023/02/18 12:03:33;;;;;;;4.32;1.40;;;;;;;11.65;54.60;100310.84;10415929;28;20061;-80
2023/02/18 12:08:48;;;;;;;5.80;1.83;;;;;;;11.23;55.30;100321.19;10399680;28;20068;-81
2023/02/18 12:13:57;;;;;;;3.83;1.50;;;;;;;11.05;56.26;100294.22;10410002;28;20057;-80
2023/02/18 12:19:22;;;;;;;4.57;1.60;;;;;;;10.90;57.34;100318.63;10400969;28;21148;-80
2023/02/18 12:25:06;;;;;;;4.18;1.50;;;;;;;10.62;59.71;100315.81;10412735;28;20487;-81
2023/02/18 12:30:33;;;;;;;4.60;1.60;;;;;;;10.59;60.25;100321.19;10402971;28;20049;-82
2023/02/18 12:35:48;;;;;;;4.93;1.55;;;;;;;10.74;60.25;100317.78;10409358;28;20409;-81
2023/02/18 12:41:22;;;;;;;3.72;1.67;;;;;;;10.49;62.43;100314.78;10414564;28;20057;-81
2023/02/18 12:46:52;;;;;;;3.40;1.60;;;;;;;10.77;62.10;100317.59;10410906;28;20071;-81
2023/02/18 12:52:26;;;;;;;3.05;1.30;;;;;;;10.74;62.09;100314.31;10412604;28;20056;-82
2023/02/18 12:57:56;;;;;;;3.25;1.35;;;;;;;10.90;62.09;100323.00;10404842;28;20065;-82
2023/02/18 13:03:35;;;;;;;3.03;1.48;;;;;;;10.65;63.20;100305.19;10416934;28;20053;-83
2023/02/18 13:09:02;;;;;;;6.53;2.05;;;;;;;10.69;63.18;100314.53;10408283;28;20062;-83
2023/02/18 13:14:27;;;;;;;4.07;2.15;;;;;;;10.67;63.62;100323.41;10419692;28;20502;-83
2023/02/18 13:19:51;;;;;;;4.82;2.30;;;;;;;10.21;64.99;100314.53;10406928;28;20053;-83
2023/02/18 13:24:58;;;;;;;105.28;63.45;;;;;;;10.37;65.28;100315.44;10425124;28;20144;-83
2023/02/18 13:30:21;;;;;;;2.47;1.38;;;;;;;10.54;64.85;100309.31;10408822;28;20052;-83
2023/02/18 13:41:42;;;;;;;3.42;1.70;;;;;;;10.19;65.73;100325.09;10416856;28;20478;-83
2023/02/18 13:46:56;;;;;;;8.57;1.70;;;;;;;10.06;65.79;100320.56;10408248;28;20079;-83
2023/02/18 13:52:19;;;;;;;5.07;2.03;;;;;;;10.02;66.65;100314.66;10427993;28;20437;-82
2023/02/18 13:57:25;;;;;;;3.60;1.42;;;;;;;10.19;65.67;100314.63;10400235;28;20061;-81
2023/02/18 14:02:56;;;;;;;2.75;1.35;;;;;;;10.12;66.42;100320.22;10408204;28;20088;-83
2023/02/18 14:08:35;;;;;;;6.40;2.00;;;;;;;10.22;66.04;100321.44;10396252;28;20057;-82
2023/02/18 14:13:42;;;;;;;2.40;1.38;;;;;;;9.98;66.59;100314.88;10409515;28;20557;-82
2023/02/18 14:18:43;;;;;;;1.92;1.30;;;;;;;9.87;66.89;100315.41;10410571;28;20524;-82
2023/02/18 14:24:00;;;;;;;2.92;1.50;;;;;;;9.86;67.88;100318.13;10414846;28;20111;-83
2023/02/18 14:29:25;;;;;;;3.55;1.65;;;;;;;9.90;67.85;100304.81;10406976;28;20057;-83
2023/02/18 14:34:49;;;;;;;3.28;1.60;;;;;;;9.85;68.49;100312.03;10409145;28;20749;-82
2023/02/18 14:40:15;;;;;;;2.97;1.48;;;;;;;9.91;68.13;100308.28;10388698;28;20052;-82
2023/02/18 14:45:45;;;;;;;3.97;1.45;;;;;;;10.05;67.36;100306.66;10402703;28;20417;-82
2023/02/18 14:50:51;;;;;;;1.85;1.20;;;;;;;10.23;66.93;100307.47;10412310;28;20064;-82
2023/02/18 14:56:01;;;;;;;2.45;1.30;;;;;;;10.22;67.02;100309.22;10414294;28;20063;-82
2023/02/18 15:01:17;;;;;;;3.13;1.50;;;;;;;10.06;66.60;100302.25;10403070;28;20077;-82
2023/02/18 15:06:30;;;;;;;3.00;1.50;;;;;;;10.00;67.16;100326.09;10410872;28;20089;-83
2023/02/18 15:11:42;;;;;;;3.20;1.90;;;;;;;9.95;67.09;100317.66;10399316;28;20036;-81
2023/02/18 15:16:47;;;;;;;2.78;1.30;;;;;;;10.08;66.78;100308.25;10405724;28;20566;-81
2023/02/18 15:21:54;;;;;;;1.85;1.30;;;;;;;10.06;66.85;100303.13;10410884;28;20491;-81
2023/02/18 15:27:37;;;;;;;3.22;1.20;;;;;;;9.91;66.85;100316.13;10399681;28;20087;-81
2023/02/18 15:32:39;;;;;;;1.98;1.15;;;;;;;9.86;67.19;100307.66;10413162;28;20057;-82
2023/02/18 15:37:52;;;;;;;1.65;1.30;;;;;;;9.80;67.37;100297.53;10403303;28;20167;-81
2023/02/18 15:42:58;;;;;;;1.48;1.10;;;;;;;9.80;66.84;100306.22;10410228;28;20053;-82
2023/02/18 15:48:03;;;;;;;2.00;1.10;;;;;;;9.69;66.94;100303.28;10404036;28;20626;-81
2023/02/18 15:53:15;;;;;;;1.98;1.00;;;;;;;9.77;66.13;100293.28;10406609;28;20064;-82
2023/02/18 15:58:24;;;;;;;1.52;1.00;;;;;;;9.73;66.32;100293.56;10401301;28;20064;-81
2023/02/18 16:03:37;;;;;;;1.50;0.93;;;;;;;9.62;66.88;100291.44;10406284;28;20426;-81
2023/02/18 16:08:40;;;;;;;2.05;1.00;;;;;;;9.74;66.50;100298.69;10398699;28;20053;-81
2023/02/18 16:13:46;;;;;;;1.40;0.90;;;;;;;9.81;66.25;100288.78;10404754;28;20401;-81
2023/02/18 16:18:49;;;;;;;1.77;1.05;;;;;;;9.82;66.21;100298.28;10402416;28;20513;-81
2023/02/18 16:23:57;;;;;;;3.40;1.20;;;;;;;9.73;66.25;100290.94;10411126;28;20049;-82
2023/02/18 16:29:26;;;;;;;2.03;0.90;;;;;;;9.65;66.30;100294.72;10407409;28;20529;-82
2023/02/18 16:34:34;;;;;;;1.85;1.00;;;;;;;9.80;66.30;100302.75;10417485;28;20053;-82
2023/02/18 16:39:37;;;;;;;1.33;1.00;;;;;;;9.50;67.21;100310.34;10406482;28;20109;-82
2023/02/18 16:44:40;;;;;;;27.45;16.95;;;;;;;9.53;67.32;100299.72;10396179;28;20049;-82
2023/02/18 16:49:45;;;;;;;1.77;1.08;;;;;;;9.47;67.53;100305.25;10399928;28;20116;-82
2023/02/18 16:54:52;;;;;;;2.10;1.33;;;;;;;9.46;67.20;100304.38;10415221;28;20053;-82
2023/02/18 16:59:56;;;;;;;1.63;1.00;;;;;;;9.50;67.19;100312.94;10403738;28;20061;-82
2023/02/18 17:04:59;;;;;;;1.92;1.05;;;;;;;9.48;67.10;100307.78;10417841;28;20045;-82
2023/02/18 17:10:05;;;;;;;1.20;0.90;;;;;;;9.49;67.04;100322.53;10402774;28;20054;-81
2023/02/18 17:15:33;;;;;;;1.55;1.10;;;;;;;9.38;67.08;100316.16;10412155;28;20089;-82
2023/02/18 17:20:37;;;;;;;1.58;1.05;;;;;;;9.55;66.91;100310.94;10421481;28;20053;-82
2023/02/18 17:25:42;;;;;;;1.73;1.10;;;;;;;9.53;66.55;100303.19;10415531;28;20065;-82
2023/02/18 17:30:57;;;;;;;1.17;1.00;;;;;;;9.56;66.29;100326.50;10404599;28;20071;-82
2023/02/18 17:36:00;;;;;;;1.60;1.10;;;;;;;9.69;66.04;100324.19;10411245;28;20890;-82
2023/02/18 17:41:05;;;;;;;1.75;1.10;;;;;;;9.57;66.24;100338.66;10396623;28;20057;-82
2023/02/18 17:46:16;;;;;;;1.60;1.08;;;;;;;9.55;66.25;100344.88;10406139;28;20052;-82
2023/02/18 17:51:23;;;;;;;1.50;0.90;;;;;;;9.65;66.15;100333.06;10392892;28;20423;-82
2023/02/18 17:56:28;;;;;;;3.58;2.00;;;;;;;9.70;65.83;100353.75;10413940;28;20123;-82
2023/02/18 18:01:30;;;;;;;2.05;1.30;;;;;;;9.49;66.35;100353.00;10415312;28;20722;-82
2023/02/18 18:06:34;;;;;;;1.92;1.15;;;;;;;9.67;66.16;100353.94;10411352;28;20979;-82
2023/02/18 18:11:38;;;;;;;2.55;1.20;;;;;;;9.68;65.75;100353.00;10404995;28;20056;-82
2023/02/18 18:16:42;;;;;;;3.13;1.55;;;;;;;9.62;66.11;100360.19;10399001;28;20110;-82
2023/02/18 18:21:45;;;;;;;1.70;1.20;;;;;;;9.63;66.66;100356.63;10414348;28;20144;-82
2023/02/18 18:26:48;;;;;;;3.28;1.40;;;;;;;9.39;67.61;100364.81;10388287;28;20136;-82
2023/02/18 18:31:51;;;;;;;2.42;1.60;;;;;;;9.34;68.01;100372.84;10411806;28;20513;-82
2023/02/18 18:36:54;;;;;;;3.63;1.92;;;;;;;9.22;68.47;100368.22;10389662;28;20099;-82
2023/02/18 18:42:00;;;;;;;3.45;1.80;;;;;;;9.24;68.48;100368.19;10402959;28;20049;-82
2023/02/18 18:47:03;;;;;;;4.10;2.72;;;;;;;9.21;68.53;100376.13;10391763;28;20057;-82
2023/02/18 18:52:14;;;;;;;4.05;1.90;;;;;;;9.17;68.93;100370.22;10397114;28;20464;-82
2023/02/18 18:57:17;;;;;;;2.65;1.88;;;;;;;9.26;68.67;100368.94;10389835;28;20449;-82
2023/02/18 19:02:19;;;;;;;3.05;2.20;;;;;;;9.25;68.38;100368.09;10402353;28;20049;-82
2023/02/18 19:07:23;;;;;;;3.40;2.10;;;;;;;9.25;68.22;100368.09;10384755;28;20053;-82
2023/02/18 19:12:27;;;;;;;4.68;2.42;;;;;;;9.14;68.53;100375.56;10414936;28;20056;-81
2023/02/18 19:17:30;;;;;;;4.75;2.20;;;;;;;9.31;68.04;100370.41;10377921;28;20049;-82
2023/02/18 19:22:33;;;;;;;3.15;2.08;;;;;;;9.25;68.38;100372.47;10405398;28;20048;-82
2023/02/18 19:27:39;;;;;;;4.07;2.28;;;;;;;9.22;68.44;100364.78;10386558;28;20131;-82
2023/02/18 19:32:42;;;;;;;3.83;2.30;;;;;;;9.17;68.65;100367.63;10402619;28;20045;-82
2023/02/18 19:37:45;;;;;;;4.65;2.38;;;;;;;9.23;68.43;100356.03;10395863;28;20061;-82
2023/02/18 19:42:49;;;;;;;3.15;2.40;;;;;;;9.29;68.43;100358.34;10408981;28;20049;-82
2023/02/18 19:47:57;;;;;;;3.38;2.47;;;;;;;9.08;69.02;100352.38;10404804;28;20309;-82
2023/02/18 19:52:59;;;;;;;5.03;2.65;;;;;;;9.09;69.04;100358.44;10408582;28;20048;-83
2023/02/18 19:58:02;;;;;;;4.50;3.05;;;;;;;8.90;69.91;100355.84;10387781;28;20072;-82
2023/02/18 20:03:05;;;;;;;4.95;3.28;;;;;;;8.98;69.67;100347.66;10401737;28;20506;-82
2023/02/18 20:08:09;;;;;;;5.18;3.20;;;;;;;8.82;70.40;100348.38;10391236;28;20819;-82
2023/02/18 20:13:12;;;;;;;4.28;3.03;;;;;;;8.90;70.10;100345.41;10397606;28;20053;-82
2023/02/18 20:18:15;;;;;;;5.50;3.10;;;;;;;8.93;70.03;100342.66;10388586;28;20064;-82
2023/02/18 20:23:19;;;;;;;6.00;3.88;;;;;;;8.99;69.80;100337.16;10401248;28;20244;-82
2023/02/18 20:28:21;;;;;;;4.63;3.10;;;;;;;9.05;69.73;100336.03;10386213;28;20693;-82
2023/02/18 20:33:24;;;;;;;5.30;2.97;;;;;;;9.00;69.92;100333.63;10408321;28;20053;-83
2023/02/18 20:38:28;;;;;;;5.50;2.83;;;;;;;9.12;69.12;100333.03;10399133;28;20053;-82
2023/02/18 20:43:31;;;;;;;4.68;3.22;;;;;;;9.04;69.52;100319.53;10399908;28;20060;-82
2023/02/18 20:48:35;;;;;;;5.28;3.38;;;;;;;8.96;69.68;100324.25;10397090;28;20048;-82
2023/02/18 20:53:40;;;;;;;4.63;3.47;;;;;;;9.02;69.34;100313.53;10399895;28;20051;-82
2023/02/18 20:58:42;;;;;;;3.55;2.67;;;;;;;9.01;69.14;100295.34;10392601;28;20053;-82
2023/02/18 21:03:46;;;;;;;5.60;2.88;;;;;;;9.03;68.98;100298.72;10414079;28;20055;-82
2023/02/18 21:08:53;;;;;;;5.00;2.60;;;;;;;9.05;68.45;100297.75;10401567;28;20053;-82
2023/02/18 21:13:56;;;;;;;6.10;3.00;;;;;;;9.04;69.01;100300.41;10403848;28;20045;-82
2023/02/18 21:18:58;;;;;;;3.97;2.25;;;;;;;8.90;69.17;100308.03;10415669;28;20084;-82
2023/02/18 21:24:01;;;;;;;4.00;2.70;;;;;;;9.02;68.90;100303.09;10401558;28;21070;-82
2023/02/18 21:29:07;;;;;;;3.25;2.38;;;;;;;9.05;68.69;100302.09;10402778;28;20053;-82
2023/02/18 21:34:13;;;;;;;3.80;2.33;;;;;;;9.06;68.54;100288.97;10408100;28;20399;-82
2023/02/18 21:39:21;;;;;;;3.70;2.75;;;;;;;9.06;68.33;100286.38;10397721;28;20056;-81
2023/02/18 21:44:23;;;;;;;4.60;2.70;;;;;;;9.22;68.13;100273.47;10411393;28;20044;-81
2023/02/18 21:49:41;;;;;;;3.50;2.60;;;;;;;9.22;67.75;100270.84;10395877;28;20065;-81
2023/02/18 21:54:43;;;;;;;5.35;3.20;;;;;;;9.22;67.78;100265.63;10407410;28;20041;-79
2023/02/18 21:59:45;;;;;;;5.15;3.42;;;;;;;9.13;68.24;100260.84;10391124;28;20103;-81
2023/02/18 22:04:49;;;;;;;4.18;3.70;;;;;;;9.09;68.57;100254.06;10412435;28;20126;-81
2023/02/18 22:10:00;;;;;;;4.47;3.42;;;;;;;8.93;68.82;100253.13;10401335;28;20064;-81
2023/02/18 22:15:03;;;;;;;;;;;;;;;8.67;69.06;100264.78;10415146;28;20160;-81
2023/02/18 22:20:07;;;;;;;3.80;3.10;;;;;;;9.14;68.21;100247.72;10396229;28;19929;-81
2023/02/18 22:25:10;;;;;;;4.07;3.30;;;;;;;9.25;67.73;100250.66;10406962;28;20049;-81
2023/02/18 22:30:12;;;;;;;3.83;3.33;;;;;;;9.21;67.83;100251.72;10411218;28;20056;-81
2023/02/18 22:35:14;;;;;;;9.45;4.65;;;;;;;9.29;67.79;100243.50;10410917;28;20045;-82
2023/02/18 22:40:17;;;;;;;4.65;3.67;;;;;;;9.07;68.50;100246.34;10409992;28;20053;-81
2023/02/18 22:45:19;;;;;;;4.32;3.55;;;;;;;9.24;68.03;100230.69;10413205;28;20063;-80
2023/02/18 22:50:20;;;;;;;4.18;3.63;;;;;;;9.28;67.77;100236.63;10408605;28;20053;-80
2023/02/18 22:55:22;;;;;;;4.95;3.30;;;;;;;9.19;67.75;100232.69;10408578;28;20054;-80
2023/02/18 23:00:24;;;;;;;4.32;3.35;;;;;;;9.25;67.75;100234.13;10409584;28;20494;-80
2023/02/18 23:05:26;;;;;;;5.60;3.83;;;;;;;9.28;67.71;100231.41;10407120;28;20103;-81
2023/02/18 23:11:11;;;;;;;4.80;3.60;;;;;;;9.12;67.58;100226.06;10408818;28;20041;-80
2023/02/18 23:16:14;;;;;;;5.78;3.70;;;;;;;9.21;67.76;100230.84;10401823;28;20080;-80
2023/02/18 23:21:16;;;;;;;3.75;3.30;;;;;;;9.07;68.26;100219.38;10409339;28;20395;-80
2023/02/18 23:26:19;;;;;;;4.38;2.95;;;;;;;9.14;67.99;100223.38;10406502;28;20055;-81
2023/02/18 23:31:26;;;;;;;3.70;3.10;;;;;;;9.18;67.74;100210.09;10411191;28;20512;-81
2023/02/18 23:36:31;;;;;;;3.80;2.97;;;;;;;9.13;67.71;100208.66;10404684;28;20061;-81
2023/02/18 23:41:33;;;;;;;3.70;2.95;;;;;;;9.26;67.42;100201.91;10404826;28;20059;-81
2023/02/18 23:46:36;;;;;;;4.68;3.08;;;;;;;9.13;67.73;100190.38;10414466;28;20060;-81
2023/02/18 23:51:37;;;;;;;4.47;3.22;;;;;;;9.24;67.59;100182.88;10410319;28;20133;-81